createdAt,value
2018-09-30T00:01:47.757Z,13.23
2018-09-30T00:03:53.900Z,13.23
2018-09-30T00:06:00.064Z,13.24
2018-09-30T00:08:06.256Z,13.23
2018-09-30T00:10:12.403Z,13.21
2018-09-30T00:12:18.667Z,13.19
2018-09-30T00:14:25.060Z,13.18
2018-09-30T00:16:31.172Z,13.16
2018-09-30T00:18:37.318Z,13.15
2018-09-30T00:20:43.461Z,13.18
2018-09-30T00:22:49.685Z,13.20
2018-09-30T00:27:05.175Z,13.23
2018-09-30T00:29:11.295Z,13.22
2018-09-30T00:31:17.416Z,13.21
2018-09-30T00:33:24.133Z,13.20
2018-09-30T00:35:30.260Z,13.21
2018-09-30T00:37:36.395Z,13.21
2018-09-30T00:39:42.470Z,13.21
2018-09-30T00:41:48.621Z,13.19
2018-09-30T00:43:54.688Z,13.19
2018-09-30T00:46:00.817Z,13.18
2018-09-30T00:48:07.015Z,13.19
2018-09-30T00:50:13.169Z,13.15
2018-09-30T00:52:19.230Z,13.10
2018-09-30T00:54:25.327Z,13.04
2018-09-30T00:56:31.753Z,12.99
2018-09-30T00:58:37.796Z,12.97
2018-09-30T01:00:43.897Z,12.95
2018-09-30T01:02:49.943Z,12.95
2018-09-30T01:04:56.069Z,12.95
2018-09-30T01:07:02.160Z,12.95
2018-09-30T01:09:11.669Z,12.94
2018-09-30T01:11:17.729Z,12.92
2018-09-30T01:13:23.825Z,12.90
2018-09-30T01:15:30.012Z,12.90
2018-09-30T01:17:36.099Z,12.91
2018-09-30T01:19:42.236Z,12.91
2018-09-30T01:21:48.352Z,12.92
2018-09-30T01:23:55.418Z,12.89
2018-09-30T01:26:01.611Z,12.88
2018-09-30T01:28:07.783Z,12.87
2018-09-30T01:30:13.900Z,12.86
2018-09-30T01:32:20.001Z,12.83
2018-09-30T01:34:26.066Z,12.81
2018-09-30T01:36:32.193Z,12.81
2018-09-30T01:38:39.154Z,12.80
2018-09-30T01:40:45.278Z,12.75
2018-09-30T01:42:51.393Z,12.71
2018-09-30T01:44:57.442Z,12.69
2018-09-30T01:47:03.621Z,12.66
2018-09-30T01:49:09.780Z,12.63
2018-09-30T01:51:15.858Z,12.60
2018-09-30T01:53:22.095Z,12.56
2018-09-30T01:55:28.338Z,12.55
2018-09-30T01:57:34.783Z,12.51
2018-09-30T02:01:38.423Z,12.40
2018-09-30T02:03:44.528Z,12.35
2018-09-30T02:05:50.602Z,12.29
2018-09-30T02:07:57.305Z,12.23
2018-09-30T02:10:03.438Z,12.19
2018-09-30T02:12:09.529Z,12.15
2018-09-30T02:14:24.719Z,12.14
2018-09-30T02:16:32.699Z,12.13
2018-09-30T02:18:38.865Z,12.14
2018-09-30T02:20:45.048Z,12.17
2018-09-30T02:22:51.491Z,12.19
2018-09-30T02:24:58.828Z,12.20
2018-09-30T02:27:04.939Z,12.21
2018-09-30T02:29:11.035Z,12.21
2018-09-30T02:31:17.105Z,12.20
2018-09-30T02:33:23.253Z,12.18
2018-09-30T02:35:29.540Z,12.18
2018-09-30T02:37:35.695Z,12.17
2018-09-30T02:39:41.785Z,12.18
2018-09-30T02:41:48.899Z,12.16
2018-09-30T02:43:55.008Z,12.16
2018-09-30T02:46:01.147Z,12.17
2018-09-30T02:48:07.319Z,12.19
2018-09-30T02:50:13.404Z,12.19
2018-09-30T02:52:19.586Z,12.19
2018-09-30T02:54:26.221Z,12.20
2018-09-30T02:56:32.602Z,12.17
2018-09-30T02:58:39.377Z,12.17
2018-09-30T03:00:45.539Z,12.16
2018-09-30T03:02:51.814Z,12.17
2018-09-30T03:04:58.305Z,12.14
2018-09-30T03:07:09.539Z,12.10
2018-09-30T03:09:18.020Z,12.09
2018-09-30T03:11:24.227Z,12.08
2018-09-30T03:13:30.343Z,12.08
2018-09-30T03:15:36.759Z,12.09
2018-09-30T03:17:43.127Z,12.10
2018-09-30T03:19:49.256Z,12.10
2018-09-30T03:21:55.570Z,12.09
2018-09-30T03:24:01.656Z,12.08
2018-09-30T03:26:07.813Z,12.05
2018-09-30T03:28:13.868Z,12.02
2018-09-30T03:30:21.204Z,11.98
2018-09-30T03:32:28.328Z,11.94
2018-09-30T03:34:35.441Z,11.95
2018-09-30T03:36:42.456Z,11.93
2018-09-30T03:38:49.552Z,11.95
2018-09-30T03:40:57.377Z,11.96
2018-09-30T03:43:05.437Z,11.98
2018-09-30T03:45:13.412Z,11.98
2018-09-30T03:47:20.426Z,11.96
2018-09-30T03:49:28.950Z,11.94
2018-09-30T03:51:36.582Z,11.89
2018-09-30T03:53:43.917Z,11.86
2018-09-30T03:55:50.269Z,11.84
2018-09-30T03:57:56.310Z,11.85
2018-09-30T04:00:02.587Z,11.84
2018-09-30T04:02:08.881Z,11.83
2018-09-30T04:04:14.967Z,11.83
2018-09-30T04:06:21.024Z,11.82
2018-09-30T04:08:27.078Z,11.83
2018-09-30T04:10:33.201Z,11.83
2018-09-30T04:12:39.311Z,11.80
2018-09-30T04:14:45.611Z,11.74
2018-09-30T04:16:51.639Z,11.67
2018-09-30T04:18:57.771Z,11.63
2018-09-30T04:21:03.827Z,11.58
2018-09-30T04:23:09.888Z,11.50
2018-09-30T04:25:15.941Z,11.39
2018-09-30T04:27:22.028Z,11.31
2018-09-30T04:29:28.082Z,11.22
2018-09-30T04:31:34.563Z,11.14
2018-09-30T04:33:40.651Z,11.05
2018-09-30T04:35:46.782Z,10.96
2018-09-30T04:37:52.991Z,10.86
2018-09-30T04:39:59.030Z,10.82
2018-09-30T04:42:05.099Z,10.79
2018-09-30T04:44:11.136Z,10.76
2018-09-30T04:46:18.526Z,10.73
2018-09-30T04:48:24.702Z,10.69
2018-09-30T04:50:30.715Z,10.63
2018-09-30T04:52:36.840Z,10.62
2018-09-30T04:54:42.884Z,10.59
2018-09-30T04:56:49.068Z,10.57
2018-09-30T04:58:55.112Z,10.55
2018-09-30T05:01:01.271Z,10.62
2018-09-30T05:03:07.459Z,10.67
2018-09-30T05:05:13.622Z,10.70
2018-09-30T05:07:19.704Z,10.67
2018-09-30T05:09:25.793Z,10.60
2018-09-30T05:11:31.859Z,10.56
2018-09-30T05:13:38.021Z,10.56
2018-09-30T05:15:44.055Z,10.54
2018-09-30T05:17:50.207Z,10.49
2018-09-30T05:19:56.795Z,10.43
2018-09-30T05:22:02.890Z,10.40
2018-09-30T05:24:09.012Z,10.41
2018-09-30T05:26:15.083Z,10.45
2018-09-30T05:28:21.189Z,10.50
2018-09-30T05:30:27.394Z,10.55
2018-09-30T05:32:33.403Z,10.57
2018-09-30T05:34:39.465Z,10.58
2018-09-30T05:36:45.563Z,10.56
2018-09-30T05:38:51.746Z,10.50
2018-09-30T05:40:57.853Z,10.45
2018-09-30T05:43:03.950Z,10.44
2018-09-30T05:45:10.083Z,10.42
2018-09-30T05:47:16.160Z,10.39
2018-09-30T05:49:22.273Z,10.37
2018-09-30T05:51:28.395Z,10.34
2018-09-30T05:53:35.675Z,10.31
2018-09-30T05:55:41.780Z,10.30
2018-09-30T05:57:47.893Z,10.27
2018-09-30T05:59:54.302Z,10.26
2018-09-30T06:02:00.322Z,10.26
2018-09-30T06:04:07.176Z,10.29
2018-09-30T06:06:13.170Z,10.37
2018-09-30T06:08:19.268Z,10.46
2018-09-30T06:10:25.585Z,10.50
2018-09-30T06:12:31.707Z,10.49
2018-09-30T06:14:37.806Z,10.48
2018-09-30T06:16:44.170Z,10.51
2018-09-30T06:18:50.208Z,10.53
2018-09-30T06:20:56.316Z,10.53
2018-09-30T06:23:02.453Z,10.49
2018-09-30T06:25:08.652Z,10.48
2018-09-30T06:27:14.674Z,10.50
2018-09-30T06:29:20.781Z,10.51
2018-09-30T06:31:27.073Z,10.55
2018-09-30T06:33:33.199Z,10.59
2018-09-30T06:35:39.299Z,10.63
2018-09-30T06:37:45.329Z,10.66
2018-09-30T06:39:51.527Z,10.70
2018-09-30T06:41:57.643Z,10.71
2018-09-30T06:44:03.722Z,10.72
2018-09-30T06:46:10.119Z,10.74
2018-09-30T06:48:16.196Z,10.73
2018-09-30T06:50:22.338Z,10.76
2018-09-30T06:52:28.597Z,10.76
2018-09-30T06:54:34.717Z,10.82
2018-09-30T06:56:40.809Z,10.83
2018-09-30T06:58:46.951Z,10.83
2018-09-30T07:00:53.135Z,10.87
2018-09-30T07:02:59.800Z,10.91
2018-09-30T07:05:06.024Z,10.96
2018-09-30T07:07:12.125Z,11.01
2018-09-30T07:09:18.295Z,11.09
2018-09-30T07:11:24.433Z,11.19
2018-09-30T07:13:30.582Z,11.32
2018-09-30T07:15:36.761Z,11.47
2018-09-30T07:17:42.922Z,11.58
2018-09-30T07:19:49.027Z,11.66
2018-09-30T07:21:55.208Z,11.72
2018-09-30T07:24:01.313Z,11.78
2018-09-30T07:26:07.461Z,11.86
2018-09-30T07:28:13.548Z,11.94
2018-09-30T07:30:19.736Z,12.04
2018-09-30T07:32:25.816Z,12.11
2018-09-30T07:34:32.029Z,12.21
2018-09-30T07:36:38.108Z,12.29
2018-09-30T07:38:46.035Z,12.36
2018-09-30T07:40:52.295Z,12.42
2018-09-30T07:42:58.412Z,12.48
2018-09-30T07:45:04.503Z,12.54
2018-09-30T07:47:10.627Z,12.61
2018-09-30T07:49:17.664Z,12.69
2018-09-30T07:51:23.797Z,12.77
2018-09-30T07:53:29.887Z,12.84
2018-09-30T07:55:36.025Z,12.91
2018-09-30T07:57:42.367Z,12.99
2018-09-30T07:59:48.498Z,13.07
2018-09-30T08:01:54.972Z,13.13
2018-09-30T08:04:01.068Z,13.21
2018-09-30T08:06:08.391Z,13.28
2018-09-30T08:08:14.496Z,13.33
2018-09-30T08:10:20.663Z,13.38
2018-09-30T08:12:33.228Z,13.44
2018-09-30T08:14:40.657Z,13.51
2018-09-30T08:16:50.096Z,13.56
2018-09-30T08:18:57.784Z,13.64
2018-09-30T08:21:06.979Z,13.71
2018-09-30T08:23:15.314Z,13.78
2018-09-30T08:25:22.698Z,13.83
2018-09-30T08:27:29.597Z,13.90
2018-09-30T08:29:38.042Z,13.98
2018-09-30T08:31:46.074Z,14.05
2018-09-30T08:33:54.648Z,14.08
2018-09-30T08:36:07.781Z,14.09
2018-09-30T08:38:21.325Z,14.14
2018-09-30T08:40:35.104Z,14.23
2018-09-30T08:42:44.196Z,14.29
2018-09-30T08:44:54.102Z,14.36
2018-09-30T08:47:04.748Z,14.42
2018-09-30T08:49:12.475Z,14.46
2018-09-30T08:51:22.194Z,14.54
2018-09-30T08:53:30.836Z,14.60
2018-09-30T08:55:38.942Z,14.67
2018-09-30T08:57:47.830Z,14.72
2018-09-30T08:59:57.553Z,14.79
2018-09-30T09:02:06.527Z,14.88
2018-09-30T09:04:14.494Z,14.95
2018-09-30T09:06:25.606Z,15.01
2018-09-30T09:08:34.904Z,15.08
2018-09-30T09:10:45.326Z,15.15
2018-09-30T09:12:53.202Z,15.24
2018-09-30T09:15:05.799Z,15.32
2018-09-30T09:17:14.453Z,15.38
2018-09-30T09:19:27.405Z,15.44
2018-09-30T09:21:37.686Z,15.52
2018-09-30T09:23:49.519Z,15.58
2018-09-30T09:25:58.034Z,15.65
2018-09-30T09:28:04.334Z,15.72
2018-09-30T09:30:10.447Z,15.77
2018-09-30T09:32:16.648Z,15.82
2018-09-30T09:34:22.775Z,15.89
2018-09-30T09:36:28.909Z,15.95
2018-09-30T09:38:35.476Z,15.99
2018-09-30T09:40:41.564Z,16.05
2018-09-30T09:42:47.726Z,16.09
2018-09-30T09:44:53.897Z,16.12
2018-09-30T09:47:00.104Z,16.15
2018-09-30T09:49:06.225Z,16.16
2018-09-30T09:51:17.766Z,16.20
2018-09-30T09:53:31.989Z,16.24
2018-09-30T09:55:43.757Z,16.30
2018-09-30T09:58:18.174Z,16.36
2018-09-30T10:00:39.282Z,16.38
2018-09-30T10:02:57.760Z,16.41
2018-09-30T10:05:16.139Z,16.45
2018-09-30T10:07:29.789Z,16.49
2018-09-30T10:09:36.951Z,16.52
2018-09-30T10:11:44.439Z,16.58
2018-09-30T10:13:52.764Z,16.61
2018-09-30T10:15:59.668Z,16.66
2018-09-30T10:18:05.827Z,16.70
2018-09-30T10:20:11.950Z,16.72
2018-09-30T10:22:18.139Z,16.78
2018-09-30T10:24:24.250Z,16.86
2018-09-30T10:26:30.398Z,16.92
2018-09-30T10:28:36.560Z,17.00
2018-09-30T10:30:42.751Z,17.07
2018-09-30T10:32:48.943Z,17.13
2018-09-30T10:34:55.260Z,17.18
2018-09-30T10:37:01.576Z,17.23
2018-09-30T10:39:11.463Z,17.27
2018-09-30T10:41:20.029Z,17.30
2018-09-30T10:43:27.804Z,17.34
2018-09-30T10:45:36.528Z,17.38
2018-09-30T10:47:43.905Z,17.43
2018-09-30T10:49:51.151Z,17.48
2018-09-30T10:51:58.196Z,17.53
2018-09-30T10:54:05.738Z,17.60
2018-09-30T10:56:12.705Z,17.69
2018-09-30T10:58:19.578Z,17.76
2018-09-30T11:00:27.002Z,17.85
2018-09-30T11:02:33.854Z,17.91
2018-09-30T11:04:40.949Z,17.97
2018-09-30T11:06:48.447Z,18.04
2018-09-30T11:08:55.628Z,18.10
2018-09-30T11:11:02.616Z,18.18
2018-09-30T11:13:09.293Z,18.25
2018-09-30T11:15:16.369Z,18.33
2018-09-30T11:17:23.778Z,18.41
2018-09-30T11:19:30.642Z,18.47
2018-09-30T11:21:37.785Z,18.51
2018-09-30T11:23:44.710Z,18.56
2018-09-30T11:25:50.989Z,18.59
2018-09-30T11:27:57.238Z,18.62
2018-09-30T11:30:03.422Z,18.64
2018-09-30T11:32:09.617Z,18.67
2018-09-30T11:34:15.836Z,18.70
2018-09-30T11:36:21.998Z,18.75
2018-09-30T11:38:28.127Z,18.79
2018-09-30T11:40:34.354Z,18.84
2018-09-30T11:42:40.524Z,18.91
2018-09-30T11:44:46.608Z,18.97
2018-09-30T11:46:52.768Z,19.02
2018-09-30T11:49:00.246Z,19.09
2018-09-30T11:51:07.446Z,19.14
2018-09-30T11:53:14.337Z,19.20
2018-09-30T11:55:22.528Z,19.24
2018-09-30T11:57:34.707Z,19.29
2018-09-30T12:03:08.288Z,19.44
2018-09-30T12:05:14.543Z,19.50
2018-09-30T12:07:20.744Z,19.56
2018-09-30T12:09:27.141Z,19.60
2018-09-30T12:11:33.338Z,19.66
2018-09-30T12:13:39.574Z,19.70
2018-09-30T12:15:45.885Z,19.74
2018-09-30T12:17:52.113Z,19.78
2018-09-30T12:19:58.542Z,19.83
2018-09-30T12:22:04.701Z,19.87
2018-09-30T12:24:10.897Z,19.93
2018-09-30T12:26:17.121Z,19.98
2018-09-30T12:28:23.255Z,20.01
2018-09-30T12:30:29.388Z,20.06
2018-09-30T12:32:35.529Z,20.11
2018-09-30T12:34:41.978Z,20.16
2018-09-30T12:36:48.127Z,20.21
2018-09-30T12:38:54.275Z,20.26
2018-09-30T12:41:00.640Z,20.33
2018-09-30T12:43:06.916Z,20.38
2018-09-30T12:45:13.106Z,20.43
2018-09-30T12:47:19.244Z,20.46
2018-09-30T12:49:25.462Z,20.50
2018-09-30T12:51:31.640Z,20.50
2018-09-30T12:53:37.788Z,20.52
2018-09-30T12:55:44.012Z,20.55
2018-09-30T12:57:50.258Z,20.58
2018-09-30T12:59:56.377Z,20.61
2018-09-30T13:02:02.472Z,20.63
2018-09-30T13:04:09.020Z,20.66
2018-09-30T13:06:15.292Z,20.69
2018-09-30T13:08:21.504Z,20.71
2018-09-30T13:10:27.664Z,20.73
2018-09-30T13:12:33.841Z,20.77
2018-09-30T13:14:40.011Z,20.79
2018-09-30T13:16:46.246Z,20.81
2018-09-30T13:18:52.492Z,20.87
2018-09-30T13:20:58.764Z,20.89
2018-09-30T13:23:04.853Z,20.93
2018-09-30T13:25:11.819Z,20.97
2018-09-30T13:27:18.051Z,21.02
2018-09-30T13:29:25.081Z,21.06
2018-09-30T13:31:31.340Z,21.09
2018-09-30T13:33:37.517Z,21.11
2018-09-30T13:35:43.929Z,21.17
2018-09-30T13:37:50.117Z,21.22
2018-09-30T13:39:56.452Z,21.27
2018-09-30T13:42:02.532Z,21.29
2018-09-30T13:44:08.821Z,21.30
2018-09-30T13:46:15.067Z,21.32
2018-09-30T13:48:21.226Z,21.34
2018-09-30T13:50:27.382Z,21.35
2018-09-30T13:52:33.538Z,21.37
2018-09-30T13:54:39.752Z,21.38
2018-09-30T13:56:46.009Z,21.40
2018-09-30T13:58:52.230Z,21.42
2018-09-30T14:00:59.184Z,21.43
2018-09-30T14:03:05.364Z,21.43
2018-09-30T14:05:11.552Z,21.45
2018-09-30T14:07:17.765Z,21.46
2018-09-30T14:09:23.976Z,21.48
2018-09-30T14:11:30.189Z,21.50
2018-09-30T14:13:37.305Z,21.51
2018-09-30T14:15:43.548Z,21.52
2018-09-30T14:17:49.813Z,21.54
2018-09-30T14:19:56.356Z,21.57
2018-09-30T14:22:02.527Z,21.61
2018-09-30T14:24:08.712Z,21.64
2018-09-30T14:26:14.843Z,21.67
2018-09-30T14:28:20.982Z,21.70
2018-09-30T14:30:27.156Z,21.71
2018-09-30T14:32:33.323Z,21.72
2018-09-30T14:34:39.673Z,21.74
2018-09-30T14:36:46.066Z,21.76
2018-09-30T14:38:52.268Z,21.78
2018-09-30T14:40:58.533Z,21.79
2018-09-30T14:43:04.701Z,21.79
2018-09-30T14:45:10.864Z,21.80
2018-09-30T14:47:17.199Z,21.82
2018-09-30T14:49:23.466Z,21.81
2018-09-30T14:51:29.589Z,21.80
2018-09-30T14:53:35.903Z,21.81
2018-09-30T14:55:42.027Z,21.82
2018-09-30T14:57:48.194Z,21.83
2018-09-30T14:59:54.362Z,21.85
2018-09-30T15:02:00.466Z,21.87
2018-09-30T15:04:06.713Z,21.88
2018-09-30T15:06:13.037Z,21.90
2018-09-30T15:08:19.254Z,21.91
2018-09-30T15:10:25.560Z,21.92
2018-09-30T15:12:35.632Z,21.93
2018-09-30T15:14:41.929Z,21.94
2018-09-30T15:16:48.325Z,21.96
2018-09-30T15:18:54.515Z,21.99
2018-09-30T15:21:00.733Z,22.00
2018-09-30T15:23:07.187Z,22.01
2018-09-30T15:25:13.398Z,22.01
2018-09-30T15:27:19.764Z,22.03
2018-09-30T15:29:25.960Z,22.04
2018-09-30T15:31:32.270Z,22.05
2018-09-30T15:33:38.557Z,22.05
2018-09-30T15:35:44.747Z,22.07
2018-09-30T15:37:51.069Z,22.05
2018-09-30T15:39:57.269Z,22.04
2018-09-30T15:42:03.522Z,22.06
2018-09-30T15:44:09.862Z,22.05
2018-09-30T15:46:16.029Z,22.04
2018-09-30T15:48:22.210Z,22.03
2018-09-30T15:50:28.329Z,22.01
2018-09-30T15:52:34.671Z,22.01
2018-09-30T15:54:40.908Z,21.99
2018-09-30T15:56:47.205Z,21.98
2018-09-30T15:58:53.370Z,21.96
2018-09-30T16:00:59.603Z,21.95
2018-09-30T16:03:05.751Z,21.93
2018-09-30T16:05:11.963Z,21.92
2018-09-30T16:07:18.133Z,21.92
2018-09-30T16:09:24.349Z,21.91
2018-09-30T16:11:30.516Z,21.90
2018-09-30T16:13:36.802Z,21.89
2018-09-30T16:15:42.882Z,21.88
2018-09-30T16:17:48.980Z,21.86
2018-09-30T16:19:55.812Z,21.84
2018-09-30T16:22:02.002Z,21.81
2018-09-30T16:24:07.964Z,21.80
2018-09-30T16:26:14.172Z,21.78
2018-09-30T16:28:20.534Z,21.77
2018-09-30T16:30:26.589Z,21.76
2018-09-30T16:32:33.388Z,21.74
2018-09-30T16:34:39.624Z,21.73
2018-09-30T16:36:45.786Z,21.70
2018-09-30T16:38:51.947Z,21.67
2018-09-30T16:40:58.077Z,21.62
2018-09-30T16:43:04.203Z,21.55
2018-09-30T16:45:10.308Z,21.48
2018-09-30T16:47:16.550Z,21.41
2018-09-30T16:49:22.723Z,21.33
2018-09-30T16:51:29.504Z,21.23
2018-09-30T16:53:35.825Z,21.13
2018-09-30T16:55:42.025Z,21.10
2018-09-30T16:57:48.259Z,21.06
2018-09-30T16:59:54.560Z,21.04
2018-09-30T17:02:00.720Z,21.01
2018-09-30T17:04:08.230Z,21.00
2018-09-30T17:06:14.378Z,20.97
2018-09-30T17:08:20.551Z,20.95
2018-09-30T17:10:26.739Z,20.92
2018-09-30T17:12:32.968Z,20.91
2018-09-30T17:14:39.108Z,20.89
2018-09-30T17:16:45.255Z,20.87
2018-09-30T17:18:51.428Z,20.82
2018-09-30T17:20:57.550Z,20.70
2018-09-30T17:23:03.721Z,20.56
2018-09-30T17:25:09.994Z,20.44
2018-09-30T17:27:16.183Z,20.39
2018-09-30T17:29:22.342Z,20.35
2018-09-30T17:31:28.732Z,20.28
2018-09-30T17:33:34.921Z,20.19
2018-09-30T17:35:41.122Z,20.12
2018-09-30T17:37:47.690Z,20.07
2018-09-30T17:39:54.253Z,19.99
2018-09-30T17:42:00.453Z,19.87
2018-09-30T17:44:06.787Z,19.72
2018-09-30T17:46:12.965Z,19.57
2018-09-30T17:48:19.300Z,19.44
2018-09-30T17:50:25.450Z,19.34
2018-09-30T17:52:32.910Z,19.30
2018-09-30T17:54:39.105Z,19.30
2018-09-30T17:56:51.168Z,19.29
2018-09-30T17:58:58.059Z,19.26
2018-09-30T18:01:04.411Z,19.18
2018-09-30T18:03:10.754Z,19.05
2018-09-30T18:05:17.089Z,18.93
2018-09-30T18:07:23.397Z,18.83
2018-09-30T18:09:29.694Z,18.75
2018-09-30T18:11:35.975Z,18.74
2018-09-30T18:13:42.335Z,18.74
2018-09-30T18:15:48.686Z,18.68
2018-09-30T18:17:55.022Z,18.58
2018-09-30T18:20:01.362Z,18.49
2018-09-30T18:22:07.756Z,18.38
2018-09-30T18:24:14.093Z,18.30
2018-09-30T18:26:20.625Z,18.23
2018-09-30T18:28:27.239Z,18.18
2018-09-30T18:30:33.629Z,18.15
2018-09-30T18:32:39.899Z,18.13
2018-09-30T18:34:46.271Z,18.09
2018-09-30T18:36:53.086Z,18.03
2018-09-30T18:38:59.403Z,17.98
2018-09-30T18:41:05.960Z,17.92
2018-09-30T18:43:12.976Z,17.87
2018-09-30T18:45:19.558Z,17.83
2018-09-30T18:47:26.195Z,17.81
2018-09-30T18:49:32.835Z,17.79
2018-09-30T18:51:39.479Z,17.81
2018-09-30T18:53:46.133Z,17.82
2018-09-30T18:55:52.689Z,17.89
2018-09-30T18:57:59.960Z,17.94
2018-09-30T19:00:06.595Z,17.96
2018-09-30T19:02:13.124Z,17.95
2018-09-30T19:04:19.688Z,17.87
2018-09-30T19:06:26.394Z,17.75
2018-09-30T19:08:32.938Z,17.63
2018-09-30T19:10:39.505Z,17.51
2018-09-30T19:12:46.017Z,17.41
2018-09-30T19:14:52.570Z,17.34
2018-09-30T19:16:59.201Z,17.27
2018-09-30T19:19:06.581Z,17.19
2018-09-30T19:21:13.270Z,17.13
2018-09-30T19:23:19.615Z,17.08
2018-09-30T19:25:25.889Z,17.01
2018-09-30T19:27:32.100Z,16.96
2018-09-30T19:29:38.271Z,16.88
2018-09-30T19:31:44.488Z,16.83
2018-09-30T19:33:50.694Z,16.84
2018-09-30T19:35:57.114Z,16.84
2018-09-30T19:38:03.341Z,16.79
2018-09-30T19:40:10.296Z,16.72
2018-09-30T19:42:16.514Z,16.65
2018-09-30T19:44:22.766Z,16.60
2018-09-30T19:46:29.072Z,16.61
2018-09-30T19:48:35.356Z,16.59
2018-09-30T19:50:41.610Z,16.58
2018-09-30T19:52:47.974Z,16.53
2018-09-30T19:54:54.301Z,16.45
2018-09-30T19:57:00.563Z,16.53
2018-09-30T19:59:06.820Z,16.51
2018-09-30T20:01:12.966Z,16.45
2018-09-30T20:03:19.191Z,16.42
2018-09-30T20:05:25.637Z,16.40
2018-09-30T20:07:31.912Z,16.33
2018-09-30T20:09:38.216Z,16.25
2018-09-30T20:11:44.351Z,16.15
2018-09-30T20:13:50.520Z,16.05
2018-09-30T20:15:56.648Z,15.97
2018-09-30T20:18:02.888Z,15.96
2018-09-30T20:20:09.746Z,15.98
2018-09-30T20:22:15.949Z,15.99
2018-09-30T20:24:23.475Z,15.98
2018-09-30T20:26:29.757Z,15.98
2018-09-30T20:28:36.102Z,16.00
2018-09-30T20:30:42.332Z,16.03
2018-09-30T20:32:51.558Z,16.03
2018-09-30T20:34:57.779Z,16.01
2018-09-30T20:37:04.239Z,16.02
2018-09-30T20:39:10.397Z,16.02
2018-09-30T20:41:16.842Z,16.02
2018-09-30T20:43:23.149Z,15.98
2018-09-30T20:45:29.448Z,15.91
2018-09-30T20:47:35.916Z,15.86
2018-09-30T20:49:42.126Z,15.80
2018-09-30T20:51:48.341Z,15.80
2018-09-30T20:53:54.534Z,15.82
2018-09-30T20:56:00.839Z,15.81
2018-09-30T20:58:07.026Z,15.85
2018-09-30T21:00:13.370Z,15.90
2018-09-30T21:02:19.462Z,15.92
2018-09-30T21:04:25.675Z,15.94
2018-09-30T21:06:33.194Z,15.96
2018-09-30T21:08:39.474Z,15.99
2018-09-30T21:10:45.854Z,15.93
2018-09-30T21:12:52.139Z,15.80
2018-09-30T21:14:58.340Z,15.68
2018-09-30T21:17:04.520Z,15.66
2018-09-30T21:19:10.705Z,15.63
2018-09-30T21:21:16.924Z,15.63
2018-09-30T21:23:23.125Z,15.59
2018-09-30T21:25:29.311Z,15.56
2018-09-30T21:27:35.637Z,15.56
2018-09-30T21:29:41.905Z,15.55
2018-09-30T21:31:48.052Z,15.51
2018-09-30T21:33:54.366Z,15.45
2018-09-30T21:36:00.540Z,15.39
2018-09-30T21:38:06.776Z,15.34
2018-09-30T21:40:12.926Z,15.31
2018-09-30T21:42:19.128Z,15.28
2018-09-30T21:44:25.371Z,15.26
2018-09-30T21:46:31.492Z,15.28
2018-09-30T21:48:37.836Z,15.29
2018-09-30T21:50:43.894Z,15.34
2018-09-30T21:52:50.105Z,15.36
2018-09-30T21:54:56.346Z,15.41
2018-09-30T21:57:02.464Z,15.44
2018-09-30T21:59:08.619Z,15.44
2018-09-30T22:01:14.823Z,15.42
2018-09-30T22:03:20.888Z,15.40
2018-09-30T22:05:27.030Z,15.36
2018-09-30T22:07:33.142Z,15.31
2018-09-30T22:09:39.420Z,15.29
2018-09-30T22:11:45.660Z,15.30
2018-09-30T22:13:51.834Z,15.32
2018-09-30T22:15:59.986Z,15.36
2018-09-30T22:18:06.203Z,15.41
2018-09-30T22:20:13.748Z,15.45
2018-09-30T22:22:19.953Z,15.50
2018-09-30T22:24:26.060Z,15.53
2018-09-30T22:26:32.257Z,15.56
2018-09-30T22:28:38.377Z,15.56
2018-09-30T22:30:44.516Z,15.54
2018-09-30T22:32:50.603Z,15.45
2018-09-30T22:34:56.817Z,15.36
2018-09-30T22:37:02.953Z,15.25
2018-09-30T22:39:09.491Z,15.18
2018-09-30T22:41:15.648Z,15.12
2018-09-30T22:43:21.755Z,15.12
2018-09-30T22:45:27.864Z,15.12
2018-09-30T22:47:34.329Z,15.12
2018-09-30T22:49:40.463Z,15.08
2018-09-30T22:51:46.570Z,15.00
2018-09-30T22:53:52.773Z,14.93
2018-09-30T22:55:58.906Z,14.89
2018-09-30T22:58:05.093Z,14.91
2018-09-30T23:00:11.333Z,14.94
2018-09-30T23:02:17.423Z,14.95
2018-09-30T23:04:23.660Z,14.97
2018-09-30T23:06:29.915Z,14.98
2018-09-30T23:08:36.017Z,14.99
2018-09-30T23:10:42.160Z,15.01
2018-09-30T23:12:48.285Z,15.04
2018-09-30T23:14:54.403Z,15.05
2018-09-30T23:17:00.498Z,15.09
2018-09-30T23:19:06.787Z,15.14
2018-09-30T23:21:12.952Z,15.17
2018-09-30T23:23:19.055Z,15.20
2018-09-30T23:25:25.164Z,15.21
2018-09-30T23:27:31.359Z,15.17
2018-09-30T23:29:37.422Z,15.09
2018-09-30T23:31:43.592Z,15.03
2018-09-30T23:33:49.703Z,14.94
2018-09-30T23:35:55.817Z,14.86
2018-09-30T23:38:01.919Z,14.76
2018-09-30T23:40:08.169Z,14.68
2018-09-30T23:42:14.279Z,14.60
2018-09-30T23:44:20.408Z,14.52
2018-09-30T23:46:26.526Z,14.45
2018-09-30T23:48:32.904Z,14.36
2018-09-30T23:50:39.046Z,14.31
2018-09-30T23:52:45.164Z,14.26
2018-09-30T23:54:51.348Z,14.24
2018-09-30T23:56:57.479Z,14.23
2018-09-30T23:59:03.556Z,14.27
